sensor_id;sensor_type;location;lat;lon;timestamp;pressure;altitude;pressure_sealevel;temperature;humidity
8294;BME280;4185;41.506;24.938;2023-05-23T00:02:10;93308.81;;;12.49;97.49
8294;BME280;4185;41.506;24.938;2023-05-23T00:04:38;93307.59;;;12.50;97.79
8294;BME280;4185;41.506;24.938;2023-05-23T00:07:04;93298.69;;;12.49;97.55
8294;BME280;4185;41.506;24.938;2023-05-23T00:09:31;93302.38;;;12.52;97.38
8294;BME280;4185;41.506;24.938;2023-05-23T00:11:58;93304.13;;;12.44;95.84
8294;BME280;4185;41.506;24.938;2023-05-23T00:14:25;93293.75;;;12.37;95.17
8294;BME280;4185;41.506;24.938;2023-05-23T00:16:53;93295.03;;;12.30;95.22
8294;BME280;4185;41.506;24.938;2023-05-23T00:19:20;93293.81;;;12.25;94.79
8294;BME280;4185;41.506;24.938;2023-05-23T00:21:47;93295.03;;;12.24;94.54
8294;BME280;4185;41.506;24.938;2023-05-23T00:24:14;93290.16;;;12.17;94.03
8294;BME280;4185;41.506;24.938;2023-05-23T00:26:42;93298.31;;;12.17;94.90
8294;BME280;4185;41.506;24.938;2023-05-23T00:29:09;93294.06;;;12.22;95.17
8294;BME280;4185;41.506;24.938;2023-05-23T00:31:40;93296.81;;;12.22;95.80
8294;BME280;4185;41.506;24.938;2023-05-23T00:34:08;93295.03;;;12.24;96.65
8294;BME280;4185;41.506;24.938;2023-05-23T00:36:35;93299.97;;;12.32;96.64
8294;BME280;4185;41.506;24.938;2023-05-23T00:39:02;93294.31;;;12.24;96.84
8294;BME280;4185;41.506;24.938;2023-05-23T00:41:29;93302.50;;;12.18;97.10
8294;BME280;4185;41.506;24.938;2023-05-23T00:43:56;93291.13;;;12.14;97.24
8294;BME280;4185;41.506;24.938;2023-05-23T00:46:24;93282.44;;;12.16;97.38
8294;BME280;4185;41.506;24.938;2023-05-23T00:48:51;93285.41;;;12.23;97.49
8294;BME280;4185;41.506;24.938;2023-05-23T00:51:20;93290.59;;;12.21;97.30
8294;BME280;4185;41.506;24.938;2023-05-23T00:53:47;93283.44;;;12.24;97.51
8294;BME280;4185;41.506;24.938;2023-05-23T00:56:14;93281.97;;;12.17;97.90
8294;BME280;4185;41.506;24.938;2023-05-23T00:58:41;93280.72;;;12.13;98.14
8294;BME280;4185;41.506;24.938;2023-05-23T01:01:08;93276.03;;;12.08;98.21
8294;BME280;4185;41.506;24.938;2023-05-23T01:03:34;93280.28;;;12.03;98.77
8294;BME280;4185;41.506;24.938;2023-05-23T01:06:01;93283.75;;;11.98;98.15
8294;BME280;4185;41.506;24.938;2023-05-23T01:08:29;93279.81;;;11.88;97.01
8294;BME280;4185;41.506;24.938;2023-05-23T01:11:01;93280.84;;;11.74;97.06
8294;BME280;4185;41.506;24.938;2023-05-23T01:13:35;93276.41;;;11.71;96.93
8294;BME280;4185;41.506;24.938;2023-05-23T01:16:07;93277.91;;;11.67;97.07
8294;BME280;4185;41.506;24.938;2023-05-23T01:18:38;93272.94;;;11.65;96.19
8294;BME280;4185;41.506;24.938;2023-05-23T01:21:10;93268.75;;;11.64;95.88
8294;BME280;4185;41.506;24.938;2023-05-23T01:24:07;93266.53;;;11.68;95.80
8294;BME280;4185;41.506;24.938;2023-05-23T01:27:00;93266.22;;;11.77;95.04
8294;BME280;4185;41.506;24.938;2023-05-23T01:29:32;93265.00;;;11.78;95.07
8294;BME280;4185;41.506;24.938;2023-05-23T01:32:03;93266.22;;;11.77;95.39
8294;BME280;4185;41.506;24.938;2023-05-23T01:34:34;93266.75;;;11.70;96.31
8294;BME280;4185;41.506;24.938;2023-05-23T01:37:07;93264.03;;;11.70;97.07
8294;BME280;4185;41.506;24.938;2023-05-23T01:39:34;93250.19;;;11.68;97.74
8294;BME280;4185;41.506;24.938;2023-05-23T01:42:00;93254.13;;;11.67;98.47
8294;BME280;4185;41.506;24.938;2023-05-23T01:44:29;93258.09;;;11.66;99.08
8294;BME280;4185;41.506;24.938;2023-05-23T01:46:57;93258.34;;;11.68;99.13
8294;BME280;4185;41.506;24.938;2023-05-23T01:49:24;93259.81;;;11.69;98.26
8294;BME280;4185;41.506;24.938;2023-05-23T01:51:52;93254.38;;;11.64;97.81
8294;BME280;4185;41.506;24.938;2023-05-23T01:54:19;93258.09;;;11.66;98.50
8294;BME280;4185;41.506;24.938;2023-05-23T01:56:46;93250.66;;;11.61;98.04
8294;BME280;4185;41.506;24.938;2023-05-23T01:59:13;93248.94;;;11.58;98.08
8294;BME280;4185;41.506;24.938;2023-05-23T02:01:41;93252.19;;;11.51;97.75
8294;BME280;4185;41.506;24.938;2023-05-23T02:04:08;93262.09;;;11.43;98.53
8294;BME280;4185;41.506;24.938;2023-05-23T02:06:35;93261.34;;;11.43;98.53
8294;BME280;4185;41.506;24.938;2023-05-23T02:09:02;93262.09;;;11.38;98.20
8294;BME280;4185;41.506;24.938;2023-05-23T02:11:28;93263.53;;;11.33;97.47
8294;BME280;4185;41.506;24.938;2023-05-23T02:13:55;93272.94;;;11.32;98.00
8294;BME280;4185;41.506;24.938;2023-05-23T02:16:22;93265.78;;;11.24;98.03
8294;BME280;4185;41.506;24.938;2023-05-23T02:18:51;93265.56;;;11.16;98.81
8294;BME280;4185;41.506;24.938;2023-05-23T02:21:20;93262.59;;;11.14;98.68
8294;BME280;4185;41.506;24.938;2023-05-23T02:23:47;93263.06;;;11.07;99.76
8294;BME280;4185;41.506;24.938;2023-05-23T02:26:14;93267.75;;;11.01;100.00
8294;BME280;4185;41.506;24.938;2023-05-23T02:28:40;93268.00;;;11.03;100.00
8294;BME280;4185;41.506;24.938;2023-05-23T02:31:07;93267.28;;;11.02;100.00
8294;BME280;4185;41.506;24.938;2023-05-23T02:33:34;93263.31;;;11.09;100.00
8294;BME280;4185;41.506;24.938;2023-05-23T02:36:02;93263.31;;;11.15;100.00
8294;BME280;4185;41.506;24.938;2023-05-23T02:38:29;93271.00;;;11.16;100.00
8294;BME280;4185;41.506;24.938;2023-05-23T02:40:56;93263.31;;;11.20;100.00
8294;BME280;4185;41.506;24.938;2023-05-23T02:43:23;93265.56;;;11.16;100.00
8294;BME280;4185;41.506;24.938;2023-05-23T02:45:49;93261.59;;;11.17;100.00
8294;BME280;4185;41.506;24.938;2023-05-23T02:48:16;93254.44;;;11.14;99.83
8294;BME280;4185;41.506;24.938;2023-05-23T02:50:43;93256.66;;;11.16;100.00
8294;BME280;4185;41.506;24.938;2023-05-23T02:53:11;93252.44;;;11.15;99.72
8294;BME280;4185;41.506;24.938;2023-05-23T02:55:37;93260.88;;;11.11;99.66
8294;BME280;4185;41.506;24.938;2023-05-23T02:58:04;93254.19;;;11.12;99.44
8294;BME280;4185;41.506;24.938;2023-05-23T03:00:31;93258.63;;;11.04;99.15
8294;BME280;4185;41.506;24.938;2023-05-23T03:02:58;93255.66;;;11.02;99.76
8294;BME280;4185;41.506;24.938;2023-05-23T03:05:24;93252.19;;;10.96;99.66
8294;BME280;4185;41.506;24.938;2023-05-23T03:07:51;93258.88;;;10.95;100.00
8294;BME280;4185;41.506;24.938;2023-05-23T03:10:20;93256.91;;;10.95;99.98
8294;BME280;4185;41.506;24.938;2023-05-23T03:12:47;93263.06;;;10.96;100.00
8294;BME280;4185;41.506;24.938;2023-05-23T03:15:13;93265.78;;;10.96;100.00
8294;BME280;4185;41.506;24.938;2023-05-23T03:17:40;93264.78;;;10.93;100.00
8294;BME280;4185;41.506;24.938;2023-05-23T03:20:07;93268.25;;;10.88;99.96
8294;BME280;4185;41.506;24.938;2023-05-23T03:22:34;93269.97;;;10.86;100.00
8294;BME280;4185;41.506;24.938;2023-05-23T03:25:01;93267.00;;;10.89;100.00
8294;BME280;4185;41.506;24.938;2023-05-23T03:27:30;93272.91;;;10.82;100.00
8294;BME280;4185;41.506;24.938;2023-05-23T03:29:56;93261.06;;;10.80;100.00
8294;BME280;4185;41.506;24.938;2023-05-23T03:32:23;93268.97;;;10.78;100.00
8294;BME280;4185;41.506;24.938;2023-05-23T03:34:50;93271.47;;;10.87;100.00
8294;BME280;4185;41.506;24.938;2023-05-23T03:37:16;93268.25;;;10.94;100.00
8294;BME280;4185;41.506;24.938;2023-05-23T03:39:43;93264.06;;;10.98;99.83
8294;BME280;4185;41.506;24.938;2023-05-23T03:42:10;93268.00;;;11.03;99.65
8294;BME280;4185;41.506;24.938;2023-05-23T03:44:38;93264.06;;;11.04;99.60
8294;BME280;4185;41.506;24.938;2023-05-23T03:47:05;93270.00;;;10.97;98.75
8294;BME280;4185;41.506;24.938;2023-05-23T03:49:32;93275.16;;;10.89;99.29
8294;BME280;4185;41.506;24.938;2023-05-23T03:51:59;93270.72;;;10.92;98.59
8294;BME280;4185;41.506;24.938;2023-05-23T03:54:25;93274.69;;;10.85;98.53
8294;BME280;4185;41.506;24.938;2023-05-23T03:56:52;93277.41;;;10.85;98.48
8294;BME280;4185;41.506;24.938;2023-05-23T03:59:19;93273.19;;;10.79;98.78
8294;BME280;4185;41.506;24.938;2023-05-23T04:01:47;93279.84;;;10.78;99.19
8294;BME280;4185;41.506;24.938;2023-05-23T04:04:13;93282.34;;;10.87;100.00
8294;BME280;4185;41.506;24.938;2023-05-23T04:06:41;93278.88;;;10.86;99.20
8294;BME280;4185;41.506;24.938;2023-05-23T04:09:08;93288.00;;;10.94;99.27
8294;BME280;4185;41.506;24.938;2023-05-23T04:11:35;93276.41;;;10.94;98.75
8294;BME280;4185;41.506;24.938;2023-05-23T04:14:02;93283.06;;;10.98;98.30
8294;BME280;4185;41.506;24.938;2023-05-23T04:16:29;93290.00;;;11.05;98.46
8294;BME280;4185;41.506;24.938;2023-05-23T04:18:59;93288.28;;;11.02;97.90
8294;BME280;4185;41.506;24.938;2023-05-23T04:21:26;93296.44;;;11.02;98.05
8294;BME280;4185;41.506;24.938;2023-05-23T04:23:53;93291.50;;;11.00;96.80
8294;BME280;4185;41.506;24.938;2023-05-23T04:26:20;93290.97;;;10.96;97.76
8294;BME280;4185;41.506;24.938;2023-05-23T04:28:47;93295.66;;;10.96;98.18
8294;BME280;4185;41.506;24.938;2023-05-23T04:31:20;93293.69;;;10.91;98.67
8294;BME280;4185;41.506;24.938;2023-05-23T04:33:49;93296.19;;;10.89;97.70
8294;BME280;4185;41.506;24.938;2023-05-23T04:36:18;93292.72;;;10.94;98.80
8294;BME280;4185;41.506;24.938;2023-05-23T04:38:44;93294.19;;;10.95;97.46
8294;BME280;4185;41.506;24.938;2023-05-23T04:41:11;93297.66;;;10.95;98.09
8294;BME280;4185;41.506;24.938;2023-05-23T04:43:40;93299.16;;;11.02;98.03
8294;BME280;4185;41.506;24.938;2023-05-23T04:46:07;93291.25;;;11.04;96.99
8294;BME280;4185;41.506;24.938;2023-05-23T04:48:35;93297.16;;;11.08;96.66
8294;BME280;4185;41.506;24.938;2023-05-23T04:51:03;93294.69;;;11.10;97.57
8294;BME280;4185;41.506;24.938;2023-05-23T04:53:33;93297.91;;;11.08;97.83
8294;BME280;4185;41.506;24.938;2023-05-23T04:56:01;93301.88;;;11.19;97.29
8294;BME280;4185;41.506;24.938;2023-05-23T04:58:28;93300.38;;;11.12;98.28
8294;BME280;4185;41.506;24.938;2023-05-23T05:00:56;93304.09;;;11.15;98.97
8294;BME280;4185;41.506;24.938;2023-05-23T05:03:23;93300.41;;;11.18;98.98
8294;BME280;4185;41.506;24.938;2023-05-23T05:05:51;93302.63;;;11.19;99.55
8294;BME280;4185;41.506;24.938;2023-05-23T05:08:18;93297.91;;;11.20;98.56
8294;BME280;4185;41.506;24.938;2023-05-23T05:10:46;93292.00;;;11.16;99.23
8294;BME280;4185;41.506;24.938;2023-05-23T05:13:13;93297.44;;;11.21;99.21
8294;BME280;4185;41.506;24.938;2023-05-23T05:15:40;93296.69;;;11.26;99.11
8294;BME280;4185;41.506;24.938;2023-05-23T05:18:07;93298.66;;;11.31;98.76
8294;BME280;4185;41.506;24.938;2023-05-23T05:20:34;93294.72;;;11.32;99.17
8294;BME280;4185;41.506;24.938;2023-05-23T05:23:00;93292.47;;;11.47;98.19
8294;BME280;4185;41.506;24.938;2023-05-23T05:25:27;93299.63;;;11.61;98.40
8294;BME280;4185;41.506;24.938;2023-05-23T05:27:59;93294.19;;;11.72;96.86
8294;BME280;4185;41.506;24.938;2023-05-23T05:30:29;93291.97;;;11.76;97.03
8294;BME280;4185;41.506;24.938;2023-05-23T05:32:58;93286.28;;;11.85;98.06
8294;BME280;4185;41.506;24.938;2023-05-23T05:35:26;93292.16;;;12.00;97.39
8294;BME280;4185;41.506;24.938;2023-05-23T05:37:53;93304.28;;;12.05;97.67
8294;BME280;4185;41.506;24.938;2023-05-23T05:40:19;93306.94;;;12.16;97.45
8294;BME280;4185;41.506;24.938;2023-05-23T05:42:46;93295.03;;;12.24;97.63
8294;BME280;4185;41.506;24.938;2023-05-23T05:45:14;93297.28;;;12.26;97.23
8294;BME280;4185;41.506;24.938;2023-05-23T05:47:41;93299.94;;;12.43;97.13
8294;BME280;4185;41.506;24.938;2023-05-23T05:50:08;93305.09;;;12.52;97.47
8294;BME280;4185;41.506;24.938;2023-05-23T05:52:36;93306.56;;;12.58;97.33
8294;BME280;4185;41.506;24.938;2023-05-23T05:55:04;93308.53;;;12.63;97.14
8294;BME280;4185;41.506;24.938;2023-05-23T05:57:32;93290.91;;;12.70;96.47
8294;BME280;4185;41.506;24.938;2023-05-23T05:59:59;93297.44;;;12.91;96.12
8294;BME280;4185;41.506;24.938;2023-05-23T06:02:27;93296.91;;;12.98;95.93
8294;BME280;4185;41.506;24.938;2023-05-23T06:04:54;93291.47;;;13.03;95.99
8294;BME280;4185;41.506;24.938;2023-05-23T06:07:20;93301.56;;;13.14;96.51
8294;BME280;4185;41.506;24.938;2023-05-23T06:09:47;93297.50;;;13.26;95.73
8294;BME280;4185;41.506;24.938;2023-05-23T06:12:14;93304.28;;;13.49;96.69
8294;BME280;4185;41.506;24.938;2023-05-23T06:14:41;93299.06;;;13.51;96.09
8294;BME280;4185;41.506;24.938;2023-05-23T06:17:07;93300.38;;;13.69;97.78
8294;BME280;4185;41.506;24.938;2023-05-23T06:19:35;93298.47;;;13.88;96.14
8294;BME280;4185;41.506;24.938;2023-05-23T06:22:03;93289.53;;;14.11;96.79
8294;BME280;4185;41.506;24.938;2023-05-23T06:24:29;93292.50;;;14.37;94.70
8294;BME280;4185;41.506;24.938;2023-05-23T06:26:56;93285.28;;;14.58;93.53
8294;BME280;4185;41.506;24.938;2023-05-23T06:29:23;93289.00;;;14.80;93.82
8294;BME280;4185;41.506;24.938;2023-05-23T06:31:50;93280.84;;;14.93;93.64
8294;BME280;4185;41.506;24.938;2023-05-23T06:34:16;93283.66;;;15.06;93.02
8294;BME280;4185;41.506;24.938;2023-05-23T06:36:45;93294.59;;;15.06;92.30
8294;BME280;4185;41.506;24.938;2023-05-23T06:39:12;93286.00;;;15.15;93.29
8294;BME280;4185;41.506;24.938;2023-05-23T06:41:39;93284.22;;;15.17;92.03
8294;BME280;4185;41.506;24.938;2023-05-23T06:44:06;93281.25;;;15.34;91.37
8294;BME280;4185;41.506;24.938;2023-05-23T06:46:33;93287.03;;;15.30;90.79
8294;BME280;4185;41.506;24.938;2023-05-23T06:48:59;93286.50;;;15.32;91.68
8294;BME280;4185;41.506;24.938;2023-05-23T06:51:26;93283.31;;;15.28;90.18
8294;BME280;4185;41.506;24.938;2023-05-23T06:53:54;93285.09;;;15.44;89.04
8294;BME280;4185;41.506;24.938;2023-05-23T06:56:21;93281.47;;;15.67;86.54
8294;BME280;4185;41.506;24.938;2023-05-23T06:58:48;93276.41;;;15.71;83.53
8294;BME280;4185;41.506;24.938;2023-05-23T07:01:15;93279.31;;;15.92;81.47
8294;BME280;4185;41.506;24.938;2023-05-23T07:03:41;93271.09;;;15.92;80.82
8294;BME280;4185;41.506;24.938;2023-05-23T07:06:10;93275.84;;;16.05;80.65
8294;BME280;4185;41.506;24.938;2023-05-23T07:08:37;93274.47;;;16.11;79.09
8294;BME280;4185;41.506;24.938;2023-05-23T07:11:05;93276.59;;;16.18;74.98
8294;BME280;4185;41.506;24.938;2023-05-23T07:13:32;93281.63;;;16.27;73.37
8294;BME280;4185;41.506;24.938;2023-05-23T07:15:59;93272.38;;;16.56;72.44
8294;BME280;4185;41.506;24.938;2023-05-23T07:18:26;93265.22;;;16.53;73.02
8294;BME280;4185;41.506;24.938;2023-05-23T07:20:52;93270.91;;;16.55;73.41
8294;BME280;4185;41.506;24.938;2023-05-23T07:23:21;93279.94;;;16.89;72.44
8294;BME280;4185;41.506;24.938;2023-05-23T07:25:47;93261.31;;;16.95;69.70
8294;BME280;4185;41.506;24.938;2023-05-23T07:28:16;93265.69;;;16.91;70.09
8294;BME280;4185;41.506;24.938;2023-05-23T07:30:42;93270.00;;;16.86;69.01
8294;BME280;4185;41.506;24.938;2023-05-23T07:33:09;93267.13;;;16.92;67.31
8294;BME280;4185;41.506;24.938;2023-05-23T07:35:36;93276.88;;;17.14;67.62
8294;BME280;4185;41.506;24.938;2023-05-23T07:38:02;93273.03;;;17.30;66.77
8294;BME280;4185;41.506;24.938;2023-05-23T07:40:29;93266.06;;;17.29;64.90
8294;BME280;4185;41.506;24.938;2023-05-23T07:42:56;93265.97;;;17.55;63.61
8294;BME280;4185;41.506;24.938;2023-05-23T07:45:25;93275.34;;;17.59;62.81
8294;BME280;4185;41.506;24.938;2023-05-23T07:47:52;93270.19;;;17.56;61.89
8294;BME280;4185;41.506;24.938;2023-05-23T07:50:19;93277.38;;;17.59;61.46
8294;BME280;4185;41.506;24.938;2023-05-23T07:52:46;93266.84;;;17.91;60.05
8294;BME280;4185;41.506;24.938;2023-05-23T07:55:12;93271.06;;;17.92;60.73
8294;BME280;4185;41.506;24.938;2023-05-23T07:57:39;93274.88;;;18.17;60.40
8294;BME280;4185;41.506;24.938;2023-05-23T08:00:07;93272.75;;;18.23;61.04
8294;BME280;4185;41.506;24.938;2023-05-23T08:02:35;93269.00;;;18.13;60.62
8294;BME280;4185;41.506;24.938;2023-05-23T08:05:02;93270.38;;;17.99;60.17
8294;BME280;4185;41.506;24.938;2023-05-23T08:07:29;93280.84;;;17.80;60.64
8294;BME280;4185;41.506;24.938;2023-05-23T08:09:56;93278.16;;;17.67;60.90
8294;BME280;4185;41.506;24.938;2023-05-23T08:12:22;93277.16;;;17.57;61.69
8294;BME280;4185;41.506;24.938;2023-05-23T08:14:49;93281.00;;;17.54;61.30
8294;BME280;4185;41.506;24.938;2023-05-23T08:17:16;93276.88;;;17.47;61.39
8294;BME280;4185;41.506;24.938;2023-05-23T08:19:44;93274.88;;;17.48;61.59
8294;BME280;4185;41.506;24.938;2023-05-23T08:22:11;93278.47;;;17.43;60.69
8294;BME280;4185;41.506;24.938;2023-05-23T08:24:37;93277.53;;;17.40;61.47
8294;BME280;4185;41.506;24.938;2023-05-23T08:27:04;93279.34;;;17.38;61.49
8294;BME280;4185;41.506;24.938;2023-05-23T08:29:32;93273.63;;;17.36;60.84
8294;BME280;4185;41.506;24.938;2023-05-23T08:31:59;93289.03;;;17.39;60.59
8294;BME280;4185;41.506;24.938;2023-05-23T08:34:26;93290.72;;;17.42;60.74
8294;BME280;4185;41.506;24.938;2023-05-23T08:36:54;93276.47;;;17.43;59.50
8294;BME280;4185;41.506;24.938;2023-05-23T08:39:21;93279.00;;;17.41;61.21
8294;BME280;4185;41.506;24.938;2023-05-23T08:41:48;93301.06;;;17.49;61.19
8294;BME280;4185;41.506;24.938;2023-05-23T08:44:15;93293.56;;;17.49;61.93
8294;BME280;4185;41.506;24.938;2023-05-23T08:46:44;93291.56;;;17.50;60.58
8294;BME280;4185;41.506;24.938;2023-05-23T08:49:15;93295.44;;;17.54;60.91
8294;BME280;4185;41.506;24.938;2023-05-23T08:51:43;93301.06;;;17.49;59.79
8294;BME280;4185;41.506;24.938;2023-05-23T08:54:12;93298.13;;;17.47;60.43
8294;BME280;4185;41.506;24.938;2023-05-23T08:56:39;93300.63;;;17.45;60.46
8294;BME280;4185;41.506;24.938;2023-05-23T08:59:07;93295.56;;;17.49;60.96
8294;BME280;4185;41.506;24.938;2023-05-23T09:01:35;93304.09;;;17.58;61.00
8294;BME280;4185;41.506;24.938;2023-05-23T09:04:01;93298.81;;;17.60;59.91
8294;BME280;4185;41.506;24.938;2023-05-23T09:06:31;93299.72;;;17.63;60.28
8294;BME280;4185;41.506;24.938;2023-05-23T09:08:58;93308.19;;;17.65;60.55
8294;BME280;4185;41.506;24.938;2023-05-23T09:11:26;93309.66;;;17.66;60.50
8294;BME280;4185;41.506;24.938;2023-05-23T09:13:53;93305.44;;;17.65;59.94
8294;BME280;4185;41.506;24.938;2023-05-23T09:16:20;93302.28;;;18.02;60.11
8294;BME280;4185;41.506;24.938;2023-05-23T09:18:47;93304.78;;;18.20;59.70
8294;BME280;4185;41.506;24.938;2023-05-23T09:21:14;93289.09;;;18.08;57.71
8294;BME280;4185;41.506;24.938;2023-05-23T09:23:41;93292.41;;;18.06;57.89
8294;BME280;4185;41.506;24.938;2023-05-23T09:26:09;93290.97;;;18.13;58.24
8294;BME280;4185;41.506;24.938;2023-05-23T09:28:38;93300.09;;;18.08;57.19
8294;BME280;4185;41.506;24.938;2023-05-23T09:31:07;93305.25;;;18.11;57.92
8294;BME280;4185;41.506;24.938;2023-05-23T09:33:42;93309.84;;;18.09;58.21
8294;BME280;4185;41.506;24.938;2023-05-23T09:36:11;93309.63;;;18.07;58.68
8294;BME280;4185;41.506;24.938;2023-05-23T09:38:39;93305.91;;;17.97;57.47
8294;BME280;4185;41.506;24.938;2023-05-23T09:41:06;93304.03;;;17.92;58.70
8294;BME280;4185;41.506;24.938;2023-05-23T09:43:33;93308.06;;;17.91;58.75
8294;BME280;4185;41.506;24.938;2023-05-23T09:46:06;93307.50;;;17.92;58.71
8294;BME280;4185;41.506;24.938;2023-05-23T09:48:33;93309.94;;;17.96;58.66
8294;BME280;4185;41.506;24.938;2023-05-23T09:51:03;93307.34;;;18.18;58.50
8294;BME280;4185;41.506;24.938;2023-05-23T09:53:33;93305.38;;;18.26;57.63
8294;BME280;4185;41.506;24.938;2023-05-23T09:56:01;93300.88;;;18.65;56.66
8294;BME280;4185;41.506;24.938;2023-05-23T09:58:28;93294.75;;;18.87;55.22
8294;BME280;4185;41.506;24.938;2023-05-23T10:00:56;93288.84;;;18.83;54.30
8294;BME280;4185;41.506;24.938;2023-05-23T10:03:32;93284.03;;;18.76;54.29
8294;BME280;4185;41.506;24.938;2023-05-23T10:06:01;93293.63;;;18.82;54.66
8294;BME280;4185;41.506;24.938;2023-05-23T10:08:35;93289.69;;;19.06;54.17
8294;BME280;4185;41.506;24.938;2023-05-23T10:14:15;93287.81;;;19.44;53.79
8294;BME280;4185;41.506;24.938;2023-05-23T10:16:48;93297.59;;;19.68;53.59
8294;BME280;4185;41.506;24.938;2023-05-23T10:19:23;93275.72;;;19.77;51.88
8294;BME280;4185;41.506;24.938;2023-05-23T10:21:58;93271.88;;;19.73;50.21
8294;BME280;4185;41.506;24.938;2023-05-23T10:24:26;93273.00;;;19.92;49.18
8294;BME280;4185;41.506;24.938;2023-05-23T10:26:53;93274.06;;;20.04;49.24
8294;BME280;4185;41.506;24.938;2023-05-23T10:29:21;93277.38;;;20.33;48.60
8294;BME280;4185;41.506;24.938;2023-05-23T10:31:49;93257.16;;;20.23;47.47
8294;BME280;4185;41.506;24.938;2023-05-23T10:34:24;93267.84;;;20.26;48.55
8294;BME280;4185;41.506;24.938;2023-05-23T10:39:30;93267.75;;;20.64;46.55
8294;BME280;4185;41.506;24.938;2023-05-23T10:42:01;93260.69;;;20.31;47.14
8294;BME280;4185;41.506;24.938;2023-05-23T10:44:31;93274.44;;;20.08;49.45
8294;BME280;4185;41.506;24.938;2023-05-23T10:46:59;93257.34;;;20.10;49.48
8294;BME280;4185;41.506;24.938;2023-05-23T10:49:44;93262.13;;;20.09;48.72
8294;BME280;4185;41.506;24.938;2023-05-23T10:52:12;93272.25;;;19.99;48.29
8294;BME280;4185;41.506;24.938;2023-05-23T10:54:42;93265.63;;;19.87;48.21
8294;BME280;4185;41.506;24.938;2023-05-23T10:57:10;93266.00;;;19.84;48.56
8294;BME280;4185;41.506;24.938;2023-05-23T10:59:38;93273.72;;;19.93;48.83
8294;BME280;4185;41.506;24.938;2023-05-23T11:02:11;93268.00;;;19.91;50.21
8294;BME280;4185;41.506;24.938;2023-05-23T11:04:40;93268.00;;;19.91;49.38
8294;BME280;4185;41.506;24.938;2023-05-23T11:07:27;93267.84;;;19.89;48.14
8294;BME280;4185;41.506;24.938;2023-05-23T11:10:08;93259.75;;;19.76;48.23
8294;BME280;4185;41.506;24.938;2023-05-23T11:12:36;93258.84;;;19.73;47.97
8294;BME280;4185;41.506;24.938;2023-05-23T11:15:18;93261.22;;;19.77;49.90
8294;BME280;4185;41.506;24.938;2023-05-23T11:17:50;93268.19;;;19.93;49.04
8294;BME280;4185;41.506;24.938;2023-05-23T11:20:18;93259.19;;;20.00;47.49
8294;BME280;4185;41.506;24.938;2023-05-23T11:22:55;93266.00;;;19.99;48.59
8294;BME280;4185;41.506;24.938;2023-05-23T11:25:38;93259.38;;;20.09;48.36
8294;BME280;4185;41.506;24.938;2023-05-23T11:28:06;93262.91;;;20.17;49.05
8294;BME280;4185;41.506;24.938;2023-05-23T11:30:34;93264.19;;;20.24;49.43
8294;BME280;4185;41.506;24.938;2023-05-23T11:33:05;93268.94;;;20.31;49.98
8294;BME280;4185;41.506;24.938;2023-05-23T11:35:34;93270.41;;;20.32;49.76
8294;BME280;4185;41.506;24.938;2023-05-23T11:38:03;93268.94;;;20.31;49.24
8294;BME280;4185;41.506;24.938;2023-05-23T11:40:31;93275.56;;;20.28;49.68
8294;BME280;4185;41.506;24.938;2023-05-23T11:42:59;93282.34;;;20.12;49.85
8294;BME280;4185;41.506;24.938;2023-05-23T11:45:27;93308.06;;;19.84;52.60
8294;BME280;4185;41.506;24.938;2023-05-23T11:47:54;93311.84;;;19.43;56.53
8294;BME280;4185;41.506;24.938;2023-05-23T11:50:21;93346.56;;;19.03;59.56
8294;BME280;4185;41.506;24.938;2023-05-23T11:52:49;93332.56;;;18.58;62.18
8294;BME280;4185;41.506;24.938;2023-05-23T11:55:18;93361.09;;;18.27;64.84
8294;BME280;4185;41.506;24.938;2023-05-23T11:57:45;93359.53;;;18.11;66.86
8294;BME280;4185;41.506;24.938;2023-05-23T12:00:13;93369.38;;;18.06;68.01
8294;BME280;4185;41.506;24.938;2023-05-23T12:02:41;93365.28;;;18.00;67.58
8294;BME280;4185;41.506;24.938;2023-05-23T12:05:09;93358.50;;;17.80;65.78
8294;BME280;4185;41.506;24.938;2023-05-23T12:07:39;93359.50;;;17.70;68.77
8294;BME280;4185;41.506;24.938;2023-05-23T12:10:08;93347.91;;;17.64;67.84
8294;BME280;4185;41.506;24.938;2023-05-23T12:12:38;93346.38;;;17.55;70.05
8294;BME280;4185;41.506;24.938;2023-05-23T12:15:07;93344.28;;;17.48;68.19
8294;BME280;4185;41.506;24.938;2023-05-23T12:17:35;93346.16;;;17.53;67.56
8294;BME280;4185;41.506;24.938;2023-05-23T12:20:03;93354.06;;;17.44;67.10
8294;BME280;4185;41.506;24.938;2023-05-23T12:22:29;93357.69;;;17.39;66.49
8294;BME280;4185;41.506;24.938;2023-05-23T12:24:57;93356.22;;;17.38;67.00
8294;BME280;4185;41.506;24.938;2023-05-23T12:27:27;93358.63;;;17.41;66.89
8294;BME280;4185;41.506;24.938;2023-05-23T12:30:08;93354.84;;;17.31;67.05
8294;BME280;4185;41.506;24.938;2023-05-23T12:32:38;93366.25;;;17.35;67.66
8294;BME280;4185;41.506;24.938;2023-05-23T12:35:05;93363.50;;;17.35;67.59
8294;BME280;4185;41.506;24.938;2023-05-23T12:37:32;93360.56;;;17.33;67.59
8294;BME280;4185;41.506;24.938;2023-05-23T12:40:08;93358.75;;;17.36;67.14
8294;BME280;4185;41.506;24.938;2023-05-23T12:42:48;93357.28;;;17.35;68.42
8294;BME280;4185;41.506;24.938;2023-05-23T12:45:18;93352.84;;;17.32;68.64
8294;BME280;4185;41.506;24.938;2023-05-23T12:47:45;93346.53;;;17.24;67.13
8294;BME280;4185;41.506;24.938;2023-05-23T12:50:11;93342.63;;;17.19;67.64
8294;BME280;4185;41.506;24.938;2023-05-23T12:52:38;93337.69;;;17.18;67.25
8294;BME280;4185;41.506;24.938;2023-05-23T12:55:06;93341.69;;;17.17;67.96
8294;BME280;4185;41.506;24.938;2023-05-23T12:57:34;93334.50;;;17.14;67.42
8294;BME280;4185;41.506;24.938;2023-05-23T13:00:01;93339.78;;;17.12;67.39
8294;BME280;4185;41.506;24.938;2023-05-23T13:02:29;93325.69;;;17.08;67.46
8294;BME280;4185;41.506;24.938;2023-05-23T13:04:56;93327.69;;;17.07;67.96
8294;BME280;4185;41.506;24.938;2023-05-23T13:07:23;93325.47;;;17.05;68.04
8294;BME280;4185;41.506;24.938;2023-05-23T13:09:49;93327.69;;;17.07;68.84
8294;BME280;4185;41.506;24.938;2023-05-23T13:12:16;93334.31;;;17.12;68.49
8294;BME280;4185;41.506;24.938;2023-05-23T13:14:43;93331.06;;;17.13;67.82
8294;BME280;4185;41.506;24.938;2023-05-23T13:17:10;93318.47;;;17.18;69.28
8294;BME280;4185;41.506;24.938;2023-05-23T13:19:38;93323.09;;;17.23;68.69
8294;BME280;4185;41.506;24.938;2023-05-23T13:22:05;93319.81;;;17.24;68.79